sensor_id;sensor_type;location;lat;lon;timestamp;P1;P2;P0
43280;PMS5003;62175;49.416;8.690;2023-04-03T00:00:56;6;6;
43280;PMS5003;62175;49.416;8.690;2023-04-03T00:03:24;5;5;
43280;PMS5003;62175;49.416;8.690;2023-04-03T00:05:51;5;5;
43280;PMS5003;62175;49.416;8.690;2023-04-03T00:08:18;5;5;
43280;PMS5003;62175;49.416;8.690;2023-04-03T00:10:47;5;5;
43280;PMS5003;62175;49.416;8.690;2023-04-03T00:13:14;5;5;
43280;PMS5003;62175;49.416;8.690;2023-04-03T00:15:42;6;6;
43280;PMS5003;62175;49.416;8.690;2023-04-03T00:18:09;4;4;
43280;PMS5003;62175;49.416;8.690;2023-04-03T00:20:37;4;4;
43280;PMS5003;62175;49.416;8.690;2023-04-03T00:23:04;8;7;
43280;PMS5003;62175;49.416;8.690;2023-04-03T00:25:32;5;5;
43280;PMS5003;62175;49.416;8.690;2023-04-03T00:27:59;5;5;
43280;PMS5003;62175;49.416;8.690;2023-04-03T00:30:27;4;4;
43280;PMS5003;62175;49.416;8.690;2023-04-03T00:32:54;5;5;
43280;PMS5003;62175;49.416;8.690;2023-04-03T00:35:22;6;6;
43280;PMS5003;62175;49.416;8.690;2023-04-03T00:37:51;5;4;
43280;PMS5003;62175;49.416;8.690;2023-04-03T00:40:20;5;5;
43280;PMS5003;62175;49.416;8.690;2023-04-03T00:42:51;5;5;
43280;PMS5003;62175;49.416;8.690;2023-04-03T00:45:30;6;6;
43280;PMS5003;62175;49.416;8.690;2023-04-03T00:48:01;6;6;
43280;PMS5003;62175;49.416;8.690;2023-04-03T00:50:31;6;6;
43280;PMS5003;62175;49.416;8.690;2023-04-03T00:53:00;6;5;
43280;PMS5003;62175;49.416;8.690;2023-04-03T00:55:30;5;5;
43280;PMS5003;62175;49.416;8.690;2023-04-03T00:57:57;5;5;
43280;PMS5003;62175;49.416;8.690;2023-04-03T01:00:26;6;6;
43280;PMS5003;62175;49.416;8.690;2023-04-03T01:02:54;5;5;
43280;PMS5003;62175;49.416;8.690;2023-04-03T01:05:21;4;4;
43280;PMS5003;62175;49.416;8.690;2023-04-03T01:07:48;6;6;
43280;PMS5003;62175;49.416;8.690;2023-04-03T01:10:18;6;5;
43280;PMS5003;62175;49.416;8.690;2023-04-03T01:12:46;5;5;
43280;PMS5003;62175;49.416;8.690;2023-04-03T01:15:17;7;5;
43280;PMS5003;62175;49.416;8.690;2023-04-03T01:17:47;4;4;
43280;PMS5003;62175;49.416;8.690;2023-04-03T01:22:25;6;5;
43280;PMS5003;62175;49.416;8.690;2023-04-03T01:24:57;5;5;
43280;PMS5003;62175;49.416;8.690;2023-04-03T01:27:24;6;6;
43280;PMS5003;62175;49.416;8.690;2023-04-03T01:29:52;6;5;
43280;PMS5003;62175;49.416;8.690;2023-04-03T01:32:19;6;5;
43280;PMS5003;62175;49.416;8.690;2023-04-03T01:34:46;4;4;
43280;PMS5003;62175;49.416;8.690;2023-04-03T01:37:14;6;6;
43280;PMS5003;62175;49.416;8.690;2023-04-03T01:39:41;4;4;
43280;PMS5003;62175;49.416;8.690;2023-04-03T01:42:09;5;5;
43280;PMS5003;62175;49.416;8.690;2023-04-03T01:44:36;4;4;
43280;PMS5003;62175;49.416;8.690;2023-04-03T01:47:05;4;4;
43280;PMS5003;62175;49.416;8.690;2023-04-03T01:49:32;4;4;
43280;PMS5003;62175;49.416;8.690;2023-04-03T01:52:00;4;4;
43280;PMS5003;62175;49.416;8.690;2023-04-03T01:54:27;4;4;
43280;PMS5003;62175;49.416;8.690;2023-04-03T01:56:54;4;4;
43280;PMS5003;62175;49.416;8.690;2023-04-03T01:59:22;5;5;
43280;PMS5003;62175;49.416;8.690;2023-04-03T02:01:49;4;4;
43280;PMS5003;62175;49.416;8.690;2023-04-03T02:04:16;5;5;
43280;PMS5003;62175;49.416;8.690;2023-04-03T02:06:44;3;3;
43280;PMS5003;62175;49.416;8.690;2023-04-03T02:09:11;4;4;
43280;PMS5003;62175;49.416;8.690;2023-04-03T02:11:39;4;4;
43280;PMS5003;62175;49.416;8.690;2023-04-03T02:14:06;4;4;
43280;PMS5003;62175;49.416;8.690;2023-04-03T02:16:33;5;5;
43280;PMS5003;62175;49.416;8.690;2023-04-03T02:19:01;6;5;
43280;PMS5003;62175;49.416;8.690;2023-04-03T02:21:28;5;5;
43280;PMS5003;62175;49.416;8.690;2023-04-03T02:23:55;5;4;
43280;PMS5003;62175;49.416;8.690;2023-04-03T02:26:23;7;7;
43280;PMS5003;62175;49.416;8.690;2023-04-03T02:28:50;5;5;
43280;PMS5003;62175;49.416;8.690;2023-04-03T02:31:18;6;5;
43280;PMS5003;62175;49.416;8.690;2023-04-03T02:33:45;4;3;
43280;PMS5003;62175;49.416;8.690;2023-04-03T02:36:12;6;5;
43280;PMS5003;62175;49.416;8.690;2023-04-03T02:38:39;5;5;
43280;PMS5003;62175;49.416;8.690;2023-04-03T02:41:08;5;5;
43280;PMS5003;62175;49.416;8.690;2023-04-03T02:43:37;6;6;
43280;PMS5003;62175;49.416;8.690;2023-04-03T02:46:04;5;4;
43280;PMS5003;62175;49.416;8.690;2023-04-03T02:48:32;5;5;
43280;PMS5003;62175;49.416;8.690;2023-04-03T02:50:59;4;4;
43280;PMS5003;62175;49.416;8.690;2023-04-03T02:53:26;6;5;
43280;PMS5003;62175;49.416;8.690;2023-04-03T02:55:54;5;5;
43280;PMS5003;62175;49.416;8.690;2023-04-03T02:58:21;6;6;
43280;PMS5003;62175;49.416;8.690;2023-04-03T03:00:49;7;5;
43280;PMS5003;62175;49.416;8.690;2023-04-03T03:03:16;5;5;
43280;PMS5003;62175;49.416;8.690;2023-04-03T03:05:43;4;3;
43280;PMS5003;62175;49.416;8.690;2023-04-03T03:08:11;5;5;
43280;PMS5003;62175;49.416;8.690;2023-04-03T03:10:38;5;4;
43280;PMS5003;62175;49.416;8.690;2023-04-03T03:13:05;4;4;
43280;PMS5003;62175;49.416;8.690;2023-04-03T03:15:33;4;4;
43280;PMS5003;62175;49.416;8.690;2023-04-03T03:18:00;5;5;
43280;PMS5003;62175;49.416;8.690;2023-04-03T03:20:27;7;6;
43280;PMS5003;62175;49.416;8.690;2023-04-03T03:22:55;5;5;
43280;PMS5003;62175;49.416;8.690;2023-04-03T03:25:23;5;4;
43280;PMS5003;62175;49.416;8.690;2023-04-03T03:27:50;6;5;
43280;PMS5003;62175;49.416;8.690;2023-04-03T03:30:19;5;5;
43280;PMS5003;62175;49.416;8.690;2023-04-03T03:32:47;4;4;
43280;PMS5003;62175;49.416;8.690;2023-04-03T03:35:14;5;5;
43280;PMS5003;62175;49.416;8.690;2023-04-03T03:37:41;4;4;
43280;PMS5003;62175;49.416;8.690;2023-04-03T03:40:09;5;5;
43280;PMS5003;62175;49.416;8.690;2023-04-03T03:42:37;6;6;
43280;PMS5003;62175;49.416;8.690;2023-04-03T03:45:05;4;4;
43280;PMS5003;62175;49.416;8.690;2023-04-03T03:47:33;6;5;
43280;PMS5003;62175;49.416;8.690;2023-04-03T03:50:01;7;6;
43280;PMS5003;62175;49.416;8.690;2023-04-03T03:52:28;5;5;
43280;PMS5003;62175;49.416;8.690;2023-04-03T03:54:55;5;5;
43280;PMS5003;62175;49.416;8.690;2023-04-03T03:57:23;5;4;
43280;PMS5003;62175;49.416;8.690;2023-04-03T03:59:50;6;6;
43280;PMS5003;62175;49.416;8.690;2023-04-03T04:02:18;4;4;
43280;PMS5003;62175;49.416;8.690;2023-04-03T04:04:45;6;5;
43280;PMS5003;62175;49.416;8.690;2023-04-03T04:07:12;5;5;
43280;PMS5003;62175;49.416;8.690;2023-04-03T04:09:40;3;3;
43280;PMS5003;62175;49.416;8.690;2023-04-03T04:12:07;4;4;
43280;PMS5003;62175;49.416;8.690;2023-04-03T04:14:34;4;4;
43280;PMS5003;62175;49.416;8.690;2023-04-03T04:17:02;5;4;
43280;PMS5003;62175;49.416;8.690;2023-04-03T04:19:29;7;5;
43280;PMS5003;62175;49.416;8.690;2023-04-03T04:21:56;6;4;
43280;PMS5003;62175;49.416;8.690;2023-04-03T04:24:24;5;5;
43280;PMS5003;62175;49.416;8.690;2023-04-03T04:26:51;3;3;
43280;PMS5003;62175;49.416;8.690;2023-04-03T04:29:18;5;5;
43280;PMS5003;62175;49.416;8.690;2023-04-03T04:31:46;4;4;
43280;PMS5003;62175;49.416;8.690;2023-04-03T04:34:13;5;5;
43280;PMS5003;62175;49.416;8.690;2023-04-03T04:36:41;5;5;
43280;PMS5003;62175;49.416;8.690;2023-04-03T04:39:08;6;5;
43280;PMS5003;62175;49.416;8.690;2023-04-03T04:41:35;5;5;
43280;PMS5003;62175;49.416;8.690;2023-04-03T04:44:03;5;5;
43280;PMS5003;62175;49.416;8.690;2023-04-03T04:46:30;5;5;
43280;PMS5003;62175;49.416;8.690;2023-04-03T04:48:58;5;5;
43280;PMS5003;62175;49.416;8.690;2023-04-03T04:51:26;4;4;
43280;PMS5003;62175;49.416;8.690;2023-04-03T04:53:53;5;5;
43280;PMS5003;62175;49.416;8.690;2023-04-03T04:56:20;5;5;
43280;PMS5003;62175;49.416;8.690;2023-04-03T04:58:48;6;4;
43280;PMS5003;62175;49.416;8.690;2023-04-03T05:01:15;5;5;
43280;PMS5003;62175;49.416;8.690;2023-04-03T05:03:43;5;5;
43280;PMS5003;62175;49.416;8.690;2023-04-03T05:06:10;3;3;
43280;PMS5003;62175;49.416;8.690;2023-04-03T05:08:37;4;4;
43280;PMS5003;62175;49.416;8.690;2023-04-03T05:11:05;6;5;
43280;PMS5003;62175;49.416;8.690;2023-04-03T05:13:32;5;5;
43280;PMS5003;62175;49.416;8.690;2023-04-03T05:16:00;5;5;
43280;PMS5003;62175;49.416;8.690;2023-04-03T05:18:27;6;6;
43280;PMS5003;62175;49.416;8.690;2023-04-03T05:20:54;7;7;
43280;PMS5003;62175;49.416;8.690;2023-04-03T05:23:22;5;5;
43280;PMS5003;62175;49.416;8.690;2023-04-03T05:25:49;4;4;
43280;PMS5003;62175;49.416;8.690;2023-04-03T05:28:17;5;5;
43280;PMS5003;62175;49.416;8.690;2023-04-03T05:30:44;4;3;
43280;PMS5003;62175;49.416;8.690;2023-04-03T05:33:12;6;6;
43280;PMS5003;62175;49.416;8.690;2023-04-03T05:35:39;5;5;
43280;PMS5003;62175;49.416;8.690;2023-04-03T05:38:06;6;6;
43280;PMS5003;62175;49.416;8.690;2023-04-03T05:40:34;6;5;
43280;PMS5003;62175;49.416;8.690;2023-04-03T05:43:01;5;5;
43280;PMS5003;62175;49.416;8.690;2023-04-03T05:45:28;6;6;
43280;PMS5003;62175;49.416;8.690;2023-04-03T05:47:56;6;5;
43280;PMS5003;62175;49.416;8.690;2023-04-03T05:50:23;6;6;
43280;PMS5003;62175;49.416;8.690;2023-04-03T05:52:50;7;6;
43280;PMS5003;62175;49.416;8.690;2023-04-03T05:55:22;6;6;
43280;PMS5003;62175;49.416;8.690;2023-04-03T05:57:49;7;7;
43280;PMS5003;62175;49.416;8.690;2023-04-03T06:00:17;6;6;
43280;PMS5003;62175;49.416;8.690;2023-04-03T06:02:45;6;6;
43280;PMS5003;62175;49.416;8.690;2023-04-03T06:05:12;7;6;
43280;PMS5003;62175;49.416;8.690;2023-04-03T06:07:40;6;6;
43280;PMS5003;62175;49.416;8.690;2023-04-03T06:10:07;7;6;
43280;PMS5003;62175;49.416;8.690;2023-04-03T06:12:34;6;6;
43280;PMS5003;62175;49.416;8.690;2023-04-03T06:15:02;7;7;
43280;PMS5003;62175;49.416;8.690;2023-04-03T06:17:30;7;6;
43280;PMS5003;62175;49.416;8.690;2023-04-03T06:19:57;7;7;
43280;PMS5003;62175;49.416;8.690;2023-04-03T06:22:25;7;7;
43280;PMS5003;62175;49.416;8.690;2023-04-03T06:24:52;8;7;
43280;PMS5003;62175;49.416;8.690;2023-04-03T06:27:19;8;8;
43280;PMS5003;62175;49.416;8.690;2023-04-03T06:29:47;7;6;
43280;PMS5003;62175;49.416;8.690;2023-04-03T06:32:14;7;7;
43280;PMS5003;62175;49.416;8.690;2023-04-03T06:34:41;8;8;
43280;PMS5003;62175;49.416;8.690;2023-04-03T06:37:10;8;7;
43280;PMS5003;62175;49.416;8.690;2023-04-03T06:39:40;7;6;
43280;PMS5003;62175;49.416;8.690;2023-04-03T06:42:08;9;9;
43280;PMS5003;62175;49.416;8.690;2023-04-03T06:44:35;8;7;
43280;PMS5003;62175;49.416;8.690;2023-04-03T06:47:03;9;8;
43280;PMS5003;62175;49.416;8.690;2023-04-03T06:49:31;8;8;
43280;PMS5003;62175;49.416;8.690;2023-04-03T06:51:58;7;7;
43280;PMS5003;62175;49.416;8.690;2023-04-03T06:54:25;9;8;
43280;PMS5003;62175;49.416;8.690;2023-04-03T06:56:53;6;6;
43280;PMS5003;62175;49.416;8.690;2023-04-03T06:59:20;8;7;
43280;PMS5003;62175;49.416;8.690;2023-04-03T07:01:47;7;7;
43280;PMS5003;62175;49.416;8.690;2023-04-03T07:04:15;8;8;
43280;PMS5003;62175;49.416;8.690;2023-04-03T07:06:42;6;6;
43280;PMS5003;62175;49.416;8.690;2023-04-03T07:09:09;8;7;
43280;PMS5003;62175;49.416;8.690;2023-04-03T07:11:37;9;9;
43280;PMS5003;62175;49.416;8.690;2023-04-03T07:14:04;6;6;
43280;PMS5003;62175;49.416;8.690;2023-04-03T07:16:32;6;6;
43280;PMS5003;62175;49.416;8.690;2023-04-03T07:18:59;7;6;
43280;PMS5003;62175;49.416;8.690;2023-04-03T07:21:26;8;7;
43280;PMS5003;62175;49.416;8.690;2023-04-03T07:23:54;5;5;
43280;PMS5003;62175;49.416;8.690;2023-04-03T07:26:21;5;5;
43280;PMS5003;62175;49.416;8.690;2023-04-03T07:28:49;7;5;
43280;PMS5003;62175;49.416;8.690;2023-04-03T07:31:16;8;8;
43280;PMS5003;62175;49.416;8.690;2023-04-03T07:33:44;7;7;
43280;PMS5003;62175;49.416;8.690;2023-04-03T07:36:15;5;5;
43280;PMS5003;62175;49.416;8.690;2023-04-03T07:38:44;5;5;
43280;PMS5003;62175;49.416;8.690;2023-04-03T07:41:12;7;7;
43280;PMS5003;62175;49.416;8.690;2023-04-03T07:43:42;5;5;
43280;PMS5003;62175;49.416;8.690;2023-04-03T07:46:10;8;6;
43280;PMS5003;62175;49.416;8.690;2023-04-03T07:48:38;5;5;
43280;PMS5003;62175;49.416;8.690;2023-04-03T07:51:05;8;6;
43280;PMS5003;62175;49.416;8.690;2023-04-03T07:53:32;5;5;
43280;PMS5003;62175;49.416;8.690;2023-04-03T07:56:00;7;6;
43280;PMS5003;62175;49.416;8.690;2023-04-03T07:58:27;7;5;
43280;PMS5003;62175;49.416;8.690;2023-04-03T08:00:54;6;6;
43280;PMS5003;62175;49.416;8.690;2023-04-03T08:03:22;5;3;
43280;PMS5003;62175;49.416;8.690;2023-04-03T08:05:49;4;4;
43280;PMS5003;62175;49.416;8.690;2023-04-03T08:08:18;5;4;
43280;PMS5003;62175;49.416;8.690;2023-04-03T08:10:48;5;5;
43280;PMS5003;62175;49.416;8.690;2023-04-03T08:13:16;3;3;
43280;PMS5003;62175;49.416;8.690;2023-04-03T08:15:44;6;4;
43280;PMS5003;62175;49.416;8.690;2023-04-03T08:18:12;4;4;
43280;PMS5003;62175;49.416;8.690;2023-04-03T08:20:40;6;5;
43280;PMS5003;62175;49.416;8.690;2023-04-03T08:23:07;6;6;
43280;PMS5003;62175;49.416;8.690;2023-04-03T08:25:37;6;5;
43280;PMS5003;62175;49.416;8.690;2023-04-03T08:28:05;3;3;
43280;PMS5003;62175;49.416;8.690;2023-04-03T08:30:34;5;4;
43280;PMS5003;62175;49.416;8.690;2023-04-03T08:33:03;4;4;
43280;PMS5003;62175;49.416;8.690;2023-04-03T08:35:31;4;4;
43280;PMS5003;62175;49.416;8.690;2023-04-03T08:37:58;4;4;
43280;PMS5003;62175;49.416;8.690;2023-04-03T08:40:25;4;4;
43280;PMS5003;62175;49.416;8.690;2023-04-03T08:42:56;6;5;
43280;PMS5003;62175;49.416;8.690;2023-04-03T08:45:36;5;5;
43280;PMS5003;62175;49.416;8.690;2023-04-03T08:48:11;4;4;
43280;PMS5003;62175;49.416;8.690;2023-04-03T08:50:43;3;3;
43280;PMS5003;62175;49.416;8.690;2023-04-03T08:53:15;6;6;
43280;PMS5003;62175;49.416;8.690;2023-04-03T08:55:45;5;4;
43280;PMS5003;62175;49.416;8.690;2023-04-03T08:58:15;4;4;
43280;PMS5003;62175;49.416;8.690;2023-04-03T09:00:51;5;5;
43280;PMS5003;62175;49.416;8.690;2023-04-03T09:03:28;4;4;
43280;PMS5003;62175;49.416;8.690;2023-04-03T09:05:59;4;4;
43280;PMS5003;62175;49.416;8.690;2023-04-03T09:08:30;4;4;
43280;PMS5003;62175;49.416;8.690;2023-04-03T09:11:06;4;4;
43280;PMS5003;62175;49.416;8.690;2023-04-03T09:13:44;4;4;
43280;PMS5003;62175;49.416;8.690;2023-04-03T09:16:21;4;3;
43280;PMS5003;62175;49.416;8.690;2023-04-03T09:19:02;4;4;
43280;PMS5003;62175;49.416;8.690;2023-04-03T09:21:38;4;4;
43280;PMS5003;62175;49.416;8.690;2023-04-03T09:24:07;5;4;
43280;PMS5003;62175;49.416;8.690;2023-04-03T09:26:39;3;3;
43280;PMS5003;62175;49.416;8.690;2023-04-03T09:29:13;5;4;
43280;PMS5003;62175;49.416;8.690;2023-04-03T09:31:46;3;3;
43280;PMS5003;62175;49.416;8.690;2023-04-03T09:34:17;2;2;
43280;PMS5003;62175;49.416;8.690;2023-04-03T09:36:50;4;3;
43280;PMS5003;62175;49.416;8.690;2023-04-03T09:39:19;4;4;
43280;PMS5003;62175;49.416;8.690;2023-04-03T09:41:55;5;3;
43280;PMS5003;62175;49.416;8.690;2023-04-03T09:44:24;5;5;
43280;PMS5003;62175;49.416;8.690;2023-04-03T09:46:54;2;2;
43280;PMS5003;62175;49.416;8.690;2023-04-03T09:49:21;5;4;
43280;PMS5003;62175;49.416;8.690;2023-04-03T09:51:49;4;4;
43280;PMS5003;62175;49.416;8.690;2023-04-03T09:54:29;4;4;
43280;PMS5003;62175;49.416;8.690;2023-04-03T09:57:01;4;3;
43280;PMS5003;62175;49.416;8.690;2023-04-03T09:59:31;4;3;
43280;PMS5003;62175;49.416;8.690;2023-04-03T10:02:00;5;3;
43280;PMS5003;62175;49.416;8.690;2023-04-03T10:04:44;3;3;
43280;PMS5003;62175;49.416;8.690;2023-04-03T10:07:28;4;4;
43280;PMS5003;62175;49.416;8.690;2023-04-03T10:09:58;3;3;
43280;PMS5003;62175;49.416;8.690;2023-04-03T10:12:28;1;1;
43280;PMS5003;62175;49.416;8.690;2023-04-03T10:14:55;4;4;
43280;PMS5003;62175;49.416;8.690;2023-04-03T10:17:26;2;2;
43280;PMS5003;62175;49.416;8.690;2023-04-03T10:20:07;2;2;
43280;PMS5003;62175;49.416;8.690;2023-04-03T10:22:53;3;3;
43280;PMS5003;62175;49.416;8.690;2023-04-03T10:25:29;3;3;
43280;PMS5003;62175;49.416;8.690;2023-04-03T10:28:04;4;4;
43280;PMS5003;62175;49.416;8.690;2023-04-03T10:30:37;3;3;
43280;PMS5003;62175;49.416;8.690;2023-04-03T10:33:18;4;4;
43280;PMS5003;62175;49.416;8.690;2023-04-03T10:35:58;3;3;
43280;PMS5003;62175;49.416;8.690;2023-04-03T10:38:36;3;3;
43280;PMS5003;62175;49.416;8.690;2023-04-03T10:41:12;3;3;
43280;PMS5003;62175;49.416;8.690;2023-04-03T10:43:51;3;3;
43280;PMS5003;62175;49.416;8.690;2023-04-03T10:46:28;3;3;
43280;PMS5003;62175;49.416;8.690;2023-04-03T10:49:05;3;3;
43280;PMS5003;62175;49.416;8.690;2023-04-03T10:51:44;3;3;
43280;PMS5003;62175;49.416;8.690;2023-04-03T10:54:16;3;3;
43280;PMS5003;62175;49.416;8.690;2023-04-03T10:56:50;4;3;
43280;PMS5003;62175;49.416;8.690;2023-04-03T10:59:23;3;2;
43280;PMS5003;62175;49.416;8.690;2023-04-03T11:01:54;4;4;
43280;PMS5003;62175;49.416;8.690;2023-04-03T11:04:26;3;3;
43280;PMS5003;62175;49.416;8.690;2023-04-03T11:06:57;3;3;
43280;PMS5003;62175;49.416;8.690;2023-04-03T11:09:29;3;3;
43280;PMS5003;62175;49.416;8.690;2023-04-03T11:12:02;2;2;
43280;PMS5003;62175;49.416;8.690;2023-04-03T11:14:33;3;3;
43280;PMS5003;62175;49.416;8.690;2023-04-03T11:17:05;3;3;
43280;PMS5003;62175;49.416;8.690;2023-04-03T11:19:41;3;3;
43280;PMS5003;62175;49.416;8.690;2023-04-03T11:22:15;4;3;
43280;PMS5003;62175;49.416;8.690;2023-04-03T11:24:53;4;3;
43280;PMS5003;62175;49.416;8.690;2023-04-03T11:27:25;4;4;
43280;PMS5003;62175;49.416;8.690;2023-04-03T11:29:58;5;4;
43280;PMS5003;62175;49.416;8.690;2023-04-03T11:32:29;3;3;
43280;PMS5003;62175;49.416;8.690;2023-04-03T11:35:08;4;3;
43280;PMS5003;62175;49.416;8.690;2023-04-03T11:37:38;5;4;
43280;PMS5003;62175;49.416;8.690;2023-04-03T11:40:12;5;3;
43280;PMS5003;62175;49.416;8.690;2023-04-03T11:42:49;3;3;
43280;PMS5003;62175;49.416;8.690;2023-04-03T11:45:27;3;3;
43280;PMS5003;62175;49.416;8.690;2023-04-03T11:48:01;4;4;
43280;PMS5003;62175;49.416;8.690;2023-04-03T11:50:32;3;3;
43280;PMS5003;62175;49.416;8.690;2023-04-03T11:53:40;4;4;
43280;PMS5003;62175;49.416;8.690;2023-04-03T11:56:42;5;4;
43280;PMS5003;62175;49.416;8.690;2023-04-03T11:59:22;4;3;
43280;PMS5003;62175;49.416;8.690;2023-04-03T12:01:51;4;3;
43280;PMS5003;62175;49.416;8.690;2023-04-03T12:04:19;4;3;
43280;PMS5003;62175;49.416;8.690;2023-04-03T12:06:50;3;3;
43280;PMS5003;62175;49.416;8.690;2023-04-03T12:09:27;4;4;
43280;PMS5003;62175;49.416;8.690;2023-04-03T12:11:59;5;4;
43280;PMS5003;62175;49.416;8.690;2023-04-03T12:14:28;5;4;
43280;PMS5003;62175;49.416;8.690;2023-04-03T12:16:56;3;3;
43280;PMS5003;62175;49.416;8.690;2023-04-03T12:19:30;4;4;
43280;PMS5003;62175;49.416;8.690;2023-04-03T12:22:09;5;5;
43280;PMS5003;62175;49.416;8.690;2023-04-03T12:24:39;4;4;
43280;PMS5003;62175;49.416;8.690;2023-04-03T12:27:48;5;5;
43280;PMS5003;62175;49.416;8.690;2023-04-03T12:30:21;5;5;
43280;PMS5003;62175;49.416;8.690;2023-04-03T12:32:58;4;4;
43280;PMS5003;62175;49.416;8.690;2023-04-03T12:35:37;3;3;
43280;PMS5003;62175;49.416;8.690;2023-04-03T12:38:15;4;2;
43280;PMS5003;62175;49.416;8.690;2023-04-03T12:41:14;7;7;
43280;PMS5003;62175;49.416;8.690;2023-04-03T12:43:53;4;3;
43280;PMS5003;62175;49.416;8.690;2023-04-03T12:46:36;8;6;
43280;PMS5003;62175;49.416;8.690;2023-04-03T12:49:04;5;4;
43280;PMS5003;62175;49.416;8.690;2023-04-03T12:51:47;5;5;
43280;PMS5003;62175;49.416;8.690;2023-04-03T12:54:15;3;3;
43280;PMS5003;62175;49.416;8.690;2023-04-03T12:56:46;4;4;
43280;PMS5003;62175;49.416;8.690;2023-04-03T12:59:14;4;4;
43280;PMS5003;62175;49.416;8.690;2023-04-03T13:01:43;5;5;
43280;PMS5003;62175;49.416;8.690;2023-04-03T13:04:19;5;5;
43280;PMS5003;62175;49.416;8.690;2023-04-03T13:06:46;4;4;
43280;PMS5003;62175;49.416;8.690;2023-04-03T13:09:21;6;5;
43280;PMS5003;62175;49.416;8.690;2023-04-03T13:11:51;6;4;
43280;PMS5003;62175;49.416;8.690;2023-04-03T13:14:24;4;4;
43280;PMS5003;62175;49.416;8.690;2023-04-03T13:16:53;5;5;
43280;PMS5003;62175;49.416;8.690;2023-04-03T13:19:22;5;4;
43280;PMS5003;62175;49.416;8.690;2023-04-03T13:21:51;4;4;
43280;PMS5003;62175;49.416;8.690;2023-04-03T13:24:25;3;3;
43280;PMS5003;62175;49.416;8.690;2023-04-03T13:26:54;3;3;
43280;PMS5003;62175;49.416;8.690;2023-04-03T13:29:23;6;5;
43280;PMS5003;62175;49.416;8.690;2023-04-03T13:31:53;4;4;
43280;PMS5003;62175;49.416;8.690;2023-04-03T13:34:22;5;5;
43280;PMS5003;62175;49.416;8.690;2023-04-03T13:36:56;5;5;
43280;PMS5003;62175;49.416;8.690;2023-04-03T13:39:26;4;3;
43280;PMS5003;62175;49.416;8.690;2023-04-03T13:41:56;4;4;
43280;PMS5003;62175;49.416;8.690;2023-04-03T13:44:27;4;4;
43280;PMS5003;62175;49.416;8.690;2023-04-03T13:46:59;5;4;
43280;PMS5003;62175;49.416;8.690;2023-04-03T13:49:41;3;3;
43280;PMS5003;62175;49.416;8.690;2023-04-03T13:52:22;4;4;
43280;PMS5003;62175;49.416;8.690;2023-04-03T13:54:54;5;4;
43280;PMS5003;62175;49.416;8.690;2023-04-03T13:57:48;4;3;
43280;PMS5003;62175;49.416;8.690;2023-04-03T14:00:22;3;3;
43280;PMS5003;62175;49.416;8.690;2023-04-03T14:02:56;4;4;
43280;PMS5003;62175;49.416;8.690;2023-04-03T14:05:24;5;4;
43280;PMS5003;62175;49.416;8.690;2023-04-03T14:07:52;4;4;
43280;PMS5003;62175;49.416;8.690;2023-04-03T14:10:20;2;2;
43280;PMS5003;62175;49.416;8.690;2023-04-03T14:12:47;6;6;
43280;PMS5003;62175;49.416;8.690;2023-04-03T14:15:16;6;5;
43280;PMS5003;62175;49.416;8.690;2023-04-03T14:17:49;3;3;
43280;PMS5003;62175;49.416;8.690;2023-04-03T14:20:16;3;3;
43280;PMS5003;62175;49.416;8.690;2023-04-03T14:22:45;2;2;
43280;PMS5003;62175;49.416;8.690;2023-04-03T14:25:14;3;3;
43280;PMS5003;62175;49.416;8.690;2023-04-03T14:27:43;3;3;
43280;PMS5003;62175;49.416;8.690;2023-04-03T14:30:15;5;4;
43280;PMS5003;62175;49.416;8.690;2023-04-03T14:32:45;5;5;
43280;PMS5003;62175;49.416;8.690;2023-04-03T14:35:13;4;3;
43280;PMS5003;62175;49.416;8.690;2023-04-03T14:37:41;4;4;
43280;PMS5003;62175;49.416;8.690;2023-04-03T14:40:11;4;4;
43280;PMS5003;62175;49.416;8.690;2023-04-03T14:42:40;3;3;
43280;PMS5003;62175;49.416;8.690;2023-04-03T14:45:09;3;3;
43280;PMS5003;62175;49.416;8.690;2023-04-03T14:47:42;3;3;
43280;PMS5003;62175;49.416;8.690;2023-04-03T14:50:15;4;4;
43280;PMS5003;62175;49.416;8.690;2023-04-03T14:52:44;4;4;
43280;PMS5003;62175;49.416;8.690;2023-04-03T14:55:12;3;3;
43280;PMS5003;62175;49.416;8.690;2023-04-03T14:57:42;3;3;
43280;PMS5003;62175;49.416;8.690;2023-04-03T15:00:11;3;3;
43280;PMS5003;62175;49.416;8.690;2023-04-03T15:02:42;4;4;
43280;PMS5003;62175;49.416;8.690;2023-04-03T15:05:11;5;4;
43280;PMS5003;62175;49.416;8.690;2023-04-03T15:07:40;5;4;
43280;PMS5003;62175;49.416;8.690;2023-04-03T15:10:14;1;1;
43280;PMS5003;62175;49.416;8.690;2023-04-03T15:12:45;4;4;
43280;PMS5003;62175;49.416;8.690;2023-04-03T15:15:14;4;3;
43280;PMS5003;62175;49.416;8.690;2023-04-03T15:17:42;3;3;
43280;PMS5003;62175;49.416;8.690;2023-04-03T15:20:13;3;3;
43280;PMS5003;62175;49.416;8.690;2023-04-03T15:22:43;4;4;
43280;PMS5003;62175;49.416;8.690;2023-04-03T15:25:10;4;3;
43280;PMS5003;62175;49.416;8.690;2023-04-03T15:27:38;3;3;
43280;PMS5003;62175;49.416;8.690;2023-04-03T15:30:08;6;5;
43280;PMS5003;62175;49.416;8.690;2023-04-03T15:32:39;2;2;
43280;PMS5003;62175;49.416;8.690;2023-04-03T15:35:06;3;3;
43280;PMS5003;62175;49.416;8.690;2023-04-03T15:37:34;3;3;
43280;PMS5003;62175;49.416;8.690;2023-04-03T15:40:02;7;3;
43280;PMS5003;62175;49.416;8.690;2023-04-03T15:42:29;1;1;
43280;PMS5003;62175;49.416;8.690;2023-04-03T15:44:57;3;3;
43280;PMS5003;62175;49.416;8.690;2023-04-03T15:47:24;5;3;
43280;PMS5003;62175;49.416;8.690;2023-04-03T15:49:51;3;3;
43280;PMS5003;62175;49.416;8.690;2023-04-03T15:52:19;2;2;
43280;PMS5003;62175;49.416;8.690;2023-04-03T15:54:46;3;2;
43280;PMS5003;62175;49.416;8.690;2023-04-03T15:57:14;4;4;
43280;PMS5003;62175;49.416;8.690;2023-04-03T15:59:41;2;2;
43280;PMS5003;62175;49.416;8.690;2023-04-03T16:02:08;2;2;
43280;PMS5003;62175;49.416;8.690;2023-04-03T16:04:38;4;4;
43280;PMS5003;62175;49.416;8.690;2023-04-03T16:07:05;6;3;
43280;PMS5003;62175;49.416;8.690;2023-04-03T16:09:32;3;3;
43280;PMS5003;62175;49.416;8.690;2023-04-03T16:12:01;3;3;
43280;PMS5003;62175;49.416;8.690;2023-04-03T16:14:28;2;2;
43280;PMS5003;62175;49.416;8.690;2023-04-03T16:16:56;3;3;
43280;PMS5003;62175;49.416;8.690;2023-04-03T16:19:24;3;3;
43280;PMS5003;62175;49.416;8.690;2023-04-03T16:21:51;4;2;
43280;PMS5003;62175;49.416;8.690;2023-04-03T16:24:19;4;4;
43280;PMS5003;62175;49.416;8.690;2023-04-03T16:26:46;2;2;
43280;PMS5003;62175;49.416;8.690;2023-04-03T16:29:14;4;3;
43280;PMS5003;62175;49.416;8.690;2023-04-03T16:31:41;2;2;
43280;PMS5003;62175;49.416;8.690;2023-04-03T16:34:09;2;2;
43280;PMS5003;62175;49.416;8.690;2023-04-03T16:36:36;2;2;
43280;PMS5003;62175;49.416;8.690;2023-04-03T16:39:04;0;0;
43280;PMS5003;62175;49.416;8.690;2023-04-03T16:41:31;3;3;
43280;PMS5003;62175;49.416;8.690;2023-04-03T16:43:58;1;1;
43280;PMS5003;62175;49.416;8.690;2023-04-03T16:46:25;2;2;
43280;PMS5003;62175;49.416;8.690;2023-04-03T16:48:53;2;2;
43280;PMS5003;62175;49.416;8.690;2023-04-03T16:51:20;2;2;
43280;PMS5003;62175;49.416;8.690;2023-04-03T16:53:47;2;2;
43280;PMS5003;62175;49.416;8.690;2023-04-03T16:56:14;2;2;
43280;PMS5003;62175;49.416;8.690;2023-04-03T16:58:42;3;3;
43280;PMS5003;62175;49.416;8.690;2023-04-03T17:01:10;3;3;
43280;PMS5003;62175;49.416;8.690;2023-04-03T17:03:39;3;3;
43280;PMS5003;62175;49.416;8.690;2023-04-03T17:06:06;2;2;
43280;PMS5003;62175;49.416;8.690;2023-04-03T17:08:36;3;3;
43280;PMS5003;62175;49.416;8.690;2023-04-03T17:11:03;3;3;